Latest Weather Observations for Cape Ferguson

IDQ60801

Issued at 11:22 pm EST Wednesday 25 May 2022 (issued every 10 minutes, with the page automatically refreshed every 10 minutes)

About weather observations | Map of weather stations | Latest weather observations for QLD | Other Formats
Station Details ID: 032182 Name: CAPE FERGUSON NTC AWS Lat: -19.28 Lon: 147.06 Height: 0.0 m
Data from the previous 72 hours. | See also: Recent months for locations in Queensland
Date/Time
EST
Temp
°C
App
Temp
°C
Dew
Point
°C
Rel
Hum
%
Delta-T
°C
Wind Press
QNH
hPa
Press
MSL
hPa
Rain since
9am
mm
Dir  Spd
km/h
Gust
km/h
Spd
kts
Gust
kts
25/11:00pm 23.6 - - - - SE 17 20 9 11 1013.8 1013.8 -
25/10:30pm 23.9 - - - - SE 11 15 6 8 1013.9 1013.9 -
25/10:00pm 23.9 - - - - SSE 11 15 6 8 1014.1 1014.1 -
25/09:30pm 24.3 - - - - ESE 19 24 10 13 1014.2 1014.2 -
25/09:00pm 24.6 - - - - ESE 20 24 11 13 1014.3 1014.3 -
25/08:30pm 24.6 - - - - E 19 24 10 13 1014.4 1014.4 -
25/08:00pm 24.6 - - - - ESE 17 20 9 11 1014.2 1014.2 -
25/07:30pm 24.6 - - - - E 19 20 10 11 1014.0 1014.0 -
25/07:00pm 24.5 - - - - E 17 20 9 11 1013.9 1013.9 -
25/06:30pm 24.5 - - - - E 17 22 9 12 1013.7 1013.7 -
25/06:00pm 24.4 - - - - E 17 20 9 11 1013.6 1013.6 -
25/05:30pm 24.3 - - - - E 13 17 7 9 1013.3 1013.3 -
25/05:00pm 24.2 - - - - E 15 19 8 10 1013.1 1013.1 -
25/04:30pm 24.3 - - - - ENE 13 17 7 9 1012.8 1012.8 -
25/04:00pm 24.2 - - - - ENE 15 19 8 10 1012.7 1012.7 -
25/03:30pm 24.2 - - - - E 15 19 8 10 1012.8 1012.8 -
25/03:00pm 24.2 - - - - ENE 15 19 8 10 1012.9 1012.9 -
25/02:30pm 24.1 - - - - ENE 13 17 7 9 1013.0 1013.0 -
25/02:00pm 24.1 - - - - E 13 17 7 9 1013.3 1013.3 -
25/01:30pm 24.4 - - - - E 9 13 5 7 1013.5 1013.5 -
25/01:00pm 24.1 - - - - SE 7 9 4 5 1013.9 1013.9 -
25/12:30pm 23.8 - - - - SE 11 15 6 8 1014.3 1014.3 -
25/12:00pm 23.5 - - - - SE 11 19 6 10 1014.7 1014.7 -
25/11:30am 23.2 - - - - SE 15 19 8 10 1015.1 1015.1 -
25/11:00am 22.9 - - - - SE 13 19 7 10 1015.2 1015.2 -
25/10:30am 22.6 - - - - SE 17 22 9 12 1015.9 1015.9 -
25/10:00am 22.8 - - - - SE 19 22 10 12 1016.4 1016.4 -
25/09:30am 22.5 - - - - SSE 19 22 10 12 1016.7 1016.7 -
25/09:00am 22.5 - - - - SSE 19 22 10 12 1016.7 1016.7 -
25/08:30am 22.4 - - - - SSE 17 22 9 12 1016.5 1016.5 -
25/08:00am 22.2 - - - - S 17 20 9 11 1016.1 1016.1 -
25/07:30am 22.2 - - - - S 17 22 9 12 1015.9 1015.9 -
25/07:00am 22.1 - - - - SSW 13 19 7 10 1015.5 1015.5 -
25/06:30am 21.9 - - - - S 13 20 7 11 1015.1 1015.1 -
25/06:00am 22.2 - - - - SSE 17 22 9 12 1014.8 1014.8 -
25/05:30am 22.2 - - - - SSE 17 20 9 11 1014.6 1014.6 -
25/05:00am 22.3 - - - - S 17 19 9 10 1014.5 1014.5 -
25/04:30am 22.2 - - - - SSE 17 20 9 11 1014.4 1014.4 -
25/04:00am 22.6 - - - - SSE 19 22 10 12 1014.4 1014.4 -
25/03:30am 22.6 - - - - SSE 17 22 9 12 1014.6 1014.6 -
25/03:00am 22.6 - - - - S 17 20 9 11 1014.7 1014.7 -
25/02:30am 22.6 - - - - S 15 19 8 10 1014.7 1014.7 -
25/02:00am 22.7 - - - - SSE 17 22 9 12 1015.0 1015.0 -
25/01:30am 22.2 - - - - SSE 19 24 10 13 1015.3 1015.3 -
25/01:00am 22.5 - - - - SSE 19 24 10 13 1015.5 1015.5 -
25/12:30am 22.7 - - - - SSE 19 24 10 13 1015.7 1015.7 -
25/12:00am 22.9 - - - - SSE 17 20 9 11 1015.8 1015.8 -
 
Date/Time
EST
Temp
°C
App
Temp
°C
Dew
Point
°C
Rel
Hum
%
Delta-T
°C
Wind Press
QNH
hPa
Press
MSL
hPa
Rain since
9am
mm
Dir  Spd
km/h
Gust
km/h
Spd
kts
Gust
kts
24/11:30pm 23.2 - - - - SSE 19 22 10 12 1015.9 1015.9 -
24/11:00pm 23.5 - - - - SE 19 20 10 11 1016.2 1016.2 -
24/10:30pm 23.6 - - - - SSE 13 20 7 11 1016.3 1016.3 -
24/10:00pm 24.1 - - - - E 13 17 7 9 1016.4 1016.4 -
24/09:30pm 24.1 - - - - E 15 20 8 11 1016.7 1016.7 -
24/09:00pm 24.1 - - - - E 15 19 8 10 1016.7 1016.7 -
24/08:30pm 24.1 - - - - E 15 19 8 10 1016.6 1016.6 -
24/08:00pm 24.1 - - - - E 15 17 8 9 1016.3 1016.3 -
24/07:30pm 24.1 - - - - ENE 13 15 7 8 1015.7 1015.7 -
24/07:00pm 24.0 - - - - ENE 13 17 7 9 1015.2 1015.2 -
24/06:30pm 23.9 - - - - ENE 11 15 6 8 1014.7 1014.7 -
24/06:00pm 24.0 - - - - ENE 11 15 6 8 1014.6 1014.6 -
24/05:30pm 24.1 - - - - ENE 11 13 6 7 1014.2 1014.2 -
24/05:00pm 24.2 - - - - NE 9 13 5 7 1013.8 1013.8 -
24/04:30pm 24.5 - - - - ENE 15 17 8 9 1013.6 1013.6 -
24/04:00pm 25.4 - - - - ESE 15 20 8 11 1013.2 1013.2 -
24/03:30pm 26.2 - - - - S 13 20 7 11 1013.1 1013.1 -
24/03:00pm 25.9 - - - - S 11 17 6 9 1013.1 1013.1 -
24/02:30pm 25.4 - - - - SSE 11 15 6 8 1013.2 1013.2 -
24/02:00pm 25.1 - - - - ESE 9 15 5 8 1013.4 1013.4 -
24/01:30pm 24.8 - - - - SE 13 19 7 10 1013.8 1013.8 -
24/01:00pm 24.5 - - - - SSE 15 19 8 10 1014.3 1014.3 -
24/12:30pm 24.0 - - - - SE 11 15 6 8 1015.0 1015.0 -
24/12:00pm 23.6 - - - - SSE 17 20 9 11 1015.3 1015.3 -
24/11:30am 23.3 - - - - SSE 13 17 7 9 1015.6 1015.6 -
24/11:00am 22.7 - - - - SSE 13 17 7 9 1016.1 1016.1 -
24/10:30am 22.3 - - - - SSE 17 20 9 11 1016.5 1016.5 -
24/10:00am 22.0 - - - - SSE 17 20 9 11 1016.7 1016.7 -
24/09:30am 21.9 - - - - SSE 17 22 9 12 1016.7 1016.7 -
24/09:00am 21.8 - - - - SSE 19 24 10 13 1016.4 1016.4 -
24/08:30am 21.5 - - - - SSE 20 26 11 14 1016.4 1016.4 -
24/08:00am 21.4 - - - - S 17 20 9 11 1016.2 1016.2 -
24/07:30am 21.1 - - - - S 20 24 11 13 1016.0 1016.0 -
24/07:00am 21.5 - - - - S 15 22 8 12 1015.7 1015.7 -
24/06:30am 21.7 - - - - S 15 19 8 10 1015.6 1015.6 -
24/06:00am 21.8 - - - - S 15 19 8 10 1015.3 1015.3 -
24/05:30am 21.5 - - - - S 17 19 9 10 1015.1 1015.1 -
24/05:00am 21.7 - - - - S 15 19 8 10 1014.9 1014.9 -
24/04:30am 21.4 - - - - S 11 15 6 8 1014.7 1014.7 -
24/04:00am 21.6 - - - - S 13 17 7 9 1014.8 1014.8 -
24/03:30am 22.0 - - - - SSE 15 20 8 11 1014.7 1014.7 -
24/03:00am 22.2 - - - - SSE 19 22 10 12 1014.9 1014.9 -
24/02:30am 22.3 - - - - SSE 19 22 10 12 1015.2 1015.2 -
24/02:00am 22.5 - - - - SSE 17 22 9 12 1015.3 1015.3 -
24/01:30am 22.2 - - - - SSE 19 24 10 13 1015.6 1015.6 -
24/01:00am 22.1 - - - - SSE 24 30 13 16 1015.8 1015.8 -
24/12:30am 21.9 - - - - SSE 28 33 15 18 1016.1 1016.1 -
24/12:00am 22.3 - - - - S 22 28 12 15 1016.0 1016.0 -
 
Date/Time
EST
Temp
°C
App
Temp
°C
Dew
Point
°C
Rel
Hum
%
Delta-T
°C
Wind Press
QNH
hPa
Press
MSL
hPa
Rain since
9am
mm
Dir  Spd
km/h
Gust
km/h
Spd
kts
Gust
kts
23/11:30pm 23.1 - - - - SSE 24 28 13 15 1016.0 1016.0 -
23/11:00pm 24.2 - - - - ESE 24 30 13 16 1016.3 1016.3 -
23/10:30pm 24.4 - - - - ESE 24 28 13 15 1016.1 1016.1 -
23/10:00pm 24.5 - - - - E 22 28 12 15 1016.2 1016.2 -
23/09:30pm 24.5 - - - - E 24 28 13 15 1016.2 1016.2 -
23/09:00pm 24.6 - - - - E 22 24 12 13 1016.3 1016.3 -
23/08:30pm 24.6 - - - - E 20 24 11 13 1016.2 1016.2 -
23/08:00pm 24.6 - - - - E 19 22 10 12 1016.0 1016.0 -
23/07:30pm 24.6 - - - - E 19 22 10 12 1015.8 1015.8 -
23/07:00pm 24.7 - - - - E 15 19 8 10 1015.5 1015.5 -
23/06:30pm 24.6 - - - - E 15 17 8 9 1014.9 1014.9 -
23/06:00pm 24.6 - - - - E 15 19 8 10 1014.7 1014.7 -
23/05:30pm 24.5 - - - - ENE 19 20 10 11 1014.4 1014.4 -
23/05:00pm 24.5 - - - - E 17 19 9 10 1014.3 1014.3 -
23/04:30pm 24.5 - - - - ENE 19 24 10 13 1014.2 1014.2 -
23/04:00pm 24.4 - - - - E 20 24 11 13 1013.9 1013.9 -
23/03:30pm 24.4 - - - - ENE 20 26 11 14 1014.0 1014.0 -
23/03:00pm 24.3 - - - - ENE 22 26 12 14 1013.9 1013.9 -
23/02:30pm 24.5 - - - - ENE 20 26 11 14 1014.1 1014.1 -
23/02:00pm 24.5 - - - - E 15 20 8 11 1014.3 1014.3 -
23/01:30pm 24.5 - - - - ENE 13 15 7 8 1014.5 1014.5 -
23/01:00pm 24.6 - - - - ESE 15 19 8 10 1015.0 1015.0 -
23/12:30pm 24.6 - - - - ESE 11 15 6 8 1015.2 1015.2 -
23/12:00pm 24.4 - - - - SE 15 17 8 9 1015.7 1015.7 -
23/11:30am 24.2 - - - - SE 15 19 8 10 1016.0 1016.0 -
23/11:00am 24.0 - - - - SE 15 19 8 10 1015.8 1015.8 -
23/10:30am 23.6 - - - - SSE 19 22 10 12 1016.4 1016.4 -
23/10:00am 23.5 - - - - SE 17 20 9 11 1016.4 1016.4 -
23/09:30am 23.3 - - - - SSE 17 22 9 12 1016.7 1016.7 -
23/09:00am 23.0 - - - - SSE 20 24 11 13 1016.5 1016.5 -
23/08:30am 22.8 - - - - S 19 22 10 12 1016.1 1016.1 -
23/08:00am 22.6 - - - - SSE 20 24 11 13 1016.0 1016.0 -
23/07:30am 22.8 - - - - S 17 22 9 12 1015.8 1015.8 -
23/07:00am 22.5 - - - - S 17 20 9 11 1015.5 1015.5 -
23/06:30am 22.6 - - - - S 17 20 9 11 1015.0 1015.0 -
23/06:00am 22.4 - - - - S 17 22 9 12 1014.6 1014.6 -
23/05:30am 22.5 - - - - S 17 20 9 11 1014.4 1014.4 -
23/05:00am 22.7 - - - - S 13 19 7 10 1014.3 1014.3 -
23/04:30am 22.9 - - - - S 15 19 8 10 1014.1 1014.1 -
23/04:00am 23.0 - - - - S 15 22 8 12 1014.0 1014.0 -
23/03:30am 22.9 - - - - S 19 24 10 13 1014.0 1014.0 -
23/03:00am 23.0 - - - - S 19 24 10 13 1014.1 1014.1 -
23/02:30am 23.2 - - - - S 15 19 8 10 1014.1 1014.1 -
23/02:00am 23.2 - - - - SSW 9 17 5 9 1014.1 1014.1 -
23/01:30am 22.7 - - - - W 7 13 4 7 1014.3 1014.3 -
23/01:00am 23.2 - - - - S 15 19 8 10 1014.5 1014.5 -
23/12:30am 23.4 - - - - S 13 17 7 9 1014.6 1014.6 -
23/12:00am 23.3 - - - - S 17 20 9 11 1014.8 1014.8 -
 
Date/Time
EST
Temp
°C
App
Temp
°C
Dew
Point
°C
Rel
Hum
%
Delta-T
°C
Wind Press
QNH
hPa
Press
MSL
hPa
Rain since
9am
mm
Dir  Spd
km/h
Gust
km/h
Spd
kts
Gust
kts
22/11:30pm 23.1 - - - - SSE 17 22 9 12 1015.1 1015.1 -

Other formats

Comma delimited format used in spreadsheet applications
http://www.bom.gov.au/fwo/IDQ60801/IDQ60801.94297.axf

JavaScript Object Notation format (JSON) in row-major order
http://www.bom.gov.au/fwo/IDQ60801/IDQ60801.94297.json

Data quality

Most of these data are generated automatically and are frequently updated. Quality checks on data are not normally performed. It is possible for incorrect values to appear. Refer to information at About Latest Weather Observations and please check the disclaimer before using these data.